createdAt,value
2018-02-21T00:02:17.782Z,0.30
2018-02-21T00:04:47.086Z,0.30
2018-02-21T00:07:17.173Z,0.20
2018-02-21T00:09:46.505Z,0.20
2018-02-21T00:12:15.820Z,0.20
2018-02-21T00:14:45.188Z,0.20
2018-02-21T00:17:14.513Z,0.30
2018-02-21T00:19:43.842Z,0.20
2018-02-21T00:22:13.914Z,0.20
2018-02-21T00:24:43.247Z,0.10
2018-02-21T00:27:12.551Z,0.20
2018-02-21T00:29:41.855Z,0.20
2018-02-21T00:32:11.187Z,0.30
2018-02-21T00:34:40.478Z,0.20
2018-02-21T00:37:09.806Z,0.30
2018-02-21T00:39:39.168Z,0.30
2018-02-21T00:42:08.478Z,0.30
2018-02-21T00:44:38.553Z,0.40
2018-02-21T00:47:08.686Z,0.40
2018-02-21T00:49:37.972Z,0.40
2018-02-21T00:52:07.304Z,0.50
2018-02-21T00:54:36.612Z,0.40
2018-02-21T00:57:06.716Z,0.30
2018-02-21T00:59:36.057Z,0.30
2018-02-21T01:02:05.368Z,0.40
2018-02-21T01:04:34.662Z,0.30
2018-02-21T01:07:03.973Z,0.20
2018-02-21T01:09:33.292Z,0.10
2018-02-21T01:12:02.634Z,0.10
2018-02-21T01:14:32.695Z,0.10
2018-02-21T01:17:02.041Z,0.10
2018-02-21T01:19:31.362Z,0.20
2018-02-21T01:22:01.426Z,0.30
2018-02-21T01:24:30.750Z,0.30
2018-02-21T01:27:00.046Z,0.20
2018-02-21T01:29:29.371Z,0.30
2018-02-21T01:31:59.447Z,0.30
2018-02-21T01:34:28.760Z,0.30
2018-02-21T01:36:58.094Z,0.40
2018-02-21T01:39:27.401Z,0.40
2018-02-21T01:41:57.500Z,0.50
2018-02-21T01:44:26.791Z,0.50
2018-02-21T01:46:56.121Z,0.30
2018-02-21T01:49:26.209Z,0.20
2018-02-21T01:51:56.329Z,0.20
2018-02-21T01:54:25.617Z,0.20
2018-02-21T01:56:54.907Z,0.10
2018-02-21T01:59:24.228Z,0.00
2018-02-21T02:01:53.520Z,0.00
2018-02-21T02:04:22.855Z,0.00
2018-02-21T02:06:52.947Z,0.00
2018-02-21T02:09:22.256Z,0.00
2018-02-21T02:11:51.589Z,0.00
2018-02-21T02:14:21.653Z,-0.10
2018-02-21T02:16:50.996Z,-0.10
2018-02-21T02:19:20.278Z,-0.10
2018-02-21T02:21:49.585Z,-0.10
2018-02-21T02:24:18.909Z,0.00
2018-02-21T02:26:48.995Z,-0.10
2018-02-21T02:29:18.320Z,-0.10
2018-02-21T02:31:48.405Z,0.00
2018-02-21T02:34:17.710Z,0.00
2018-02-21T02:36:47.030Z,0.10
2018-02-21T02:39:34.125Z,0.10
2018-02-21T02:42:03.413Z,0.10
2018-02-21T02:44:32.739Z,0.20
2018-02-21T02:47:02.184Z,0.20
2018-02-21T02:49:31.499Z,0.20
2018-02-21T02:52:00.806Z,0.30
2018-02-21T02:54:30.141Z,0.30
2018-02-21T02:56:59.435Z,0.20
2018-02-21T02:59:28.756Z,0.20
2018-02-21T03:01:58.082Z,0.30
2018-02-21T03:04:28.146Z,0.10
2018-02-21T03:06:57.491Z,0.10
2018-02-21T03:09:27.558Z,0.10
2018-02-21T03:11:56.946Z,0.10
2018-02-21T03:14:26.236Z,0.10
2018-02-21T03:16:55.583Z,0.10
2018-02-21T03:19:24.971Z,0.20
2018-02-21T03:21:54.289Z,0.20
2018-02-21T03:24:23.588Z,0.20
2018-02-21T03:26:52.919Z,0.20
2018-02-21T03:29:22.985Z,0.20
2018-02-21T03:31:52.345Z,0.20
2018-02-21T03:34:22.438Z,0.30
2018-02-21T03:36:51.740Z,0.30
2018-02-21T03:39:21.078Z,0.40
2018-02-21T03:41:50.371Z,0.40
2018-02-21T03:44:19.702Z,0.40
2018-02-21T03:46:49.011Z,0.50
2018-02-21T03:49:18.308Z,0.50
2018-02-21T03:51:47.594Z,0.50
2018-02-21T03:54:16.968Z,0.50
2018-02-21T03:56:47.030Z,0.70
2018-02-21T03:59:16.464Z,0.60
2018-02-21T04:01:45.764Z,0.70
2018-02-21T04:04:15.058Z,0.70
2018-02-21T04:06:44.380Z,0.70
2018-02-21T04:09:13.673Z,0.70
2018-02-21T04:11:42.958Z,0.60
2018-02-21T04:14:12.298Z,0.60
2018-02-21T04:16:41.647Z,0.50
2018-02-21T04:19:11.736Z,0.40
2018-02-21T04:21:41.123Z,0.40
2018-02-21T04:24:10.436Z,0.40
2018-02-21T04:26:40.518Z,0.60
2018-02-21T04:29:09.806Z,0.50
2018-02-21T04:31:39.103Z,0.60
2018-02-21T04:34:08.435Z,0.50
2018-02-21T04:36:38.532Z,0.50
2018-02-21T04:39:07.846Z,0.50
2018-02-21T04:41:37.909Z,0.40
2018-02-21T04:44:07.251Z,0.50
2018-02-21T04:46:36.554Z,0.50
2018-02-21T04:49:05.850Z,0.50
2018-02-21T04:51:35.162Z,0.50
2018-02-21T04:54:05.228Z,0.40
2018-02-21T04:56:40.743Z,0.40
2018-02-21T04:59:15.328Z,0.30
2018-02-21T05:01:44.675Z,0.20
2018-02-21T05:04:13.979Z,0.30
2018-02-21T05:06:43.323Z,0.40
2018-02-21T05:09:12.673Z,0.40
2018-02-21T05:11:42.742Z,0.60
2018-02-21T05:14:12.742Z,0.60
2018-02-21T05:16:42.055Z,0.60
2018-02-21T05:19:12.124Z,0.60
2018-02-21T05:21:42.860Z,0.70
2018-02-21T05:24:12.912Z,0.70
2018-02-21T05:26:42.249Z,0.70
2018-02-21T05:29:11.569Z,0.70
2018-02-21T05:31:40.846Z,0.70
2018-02-21T05:34:10.196Z,0.60
2018-02-21T05:36:39.506Z,0.60
2018-02-21T05:39:08.829Z,0.60
2018-02-21T05:41:38.222Z,0.60
2018-02-21T05:44:07.536Z,0.60
2018-02-21T05:46:37.729Z,0.60
2018-02-21T05:49:07.013Z,0.60
2018-02-21T05:51:36.328Z,0.50
2018-02-21T05:54:05.655Z,0.50
2018-02-21T05:56:34.959Z,0.60
2018-02-21T05:59:04.280Z,0.50
2018-02-21T06:01:33.645Z,0.50
2018-02-21T06:04:02.960Z,0.60
2018-02-21T06:06:32.262Z,0.60
2018-02-21T06:09:01.620Z,0.60
2018-02-21T06:11:30.922Z,0.50
2018-02-21T06:14:00.242Z,0.50
2018-02-21T06:16:29.596Z,0.60
2018-02-21T06:18:58.882Z,0.50
2018-02-21T06:21:28.182Z,0.60
2018-02-21T06:23:57.509Z,0.60
2018-02-21T06:26:27.596Z,0.80
2018-02-21T06:28:56.911Z,0.80
2018-02-21T06:31:26.218Z,0.80
2018-02-21T06:33:55.512Z,0.80
2018-02-21T06:36:24.842Z,0.90
2018-02-21T06:38:54.147Z,0.90
2018-02-21T06:41:24.236Z,1.00
2018-02-21T06:43:53.621Z,1.00
2018-02-21T06:46:22.906Z,1.00
2018-02-21T06:48:52.207Z,0.90
2018-02-21T06:51:21.568Z,0.80
2018-02-21T06:53:50.876Z,0.80
2018-02-21T06:56:20.159Z,0.70
2018-02-21T06:58:49.520Z,0.70
2018-02-21T07:01:18.894Z,0.50
2018-02-21T07:03:49.076Z,0.50
2018-02-21T07:06:18.390Z,0.50
2018-02-21T07:08:48.522Z,0.60
2018-02-21T07:11:17.993Z,0.50
2018-02-21T07:13:47.300Z,0.50
2018-02-21T07:16:17.575Z,0.50
2018-02-21T07:18:46.929Z,0.50
2018-02-21T07:21:17.017Z,0.50
2018-02-21T07:23:46.385Z,0.50
2018-02-21T07:26:16.680Z,0.50
2018-02-21T07:28:46.774Z,0.50
2018-02-21T07:31:17.058Z,0.50
2018-02-21T07:33:46.369Z,0.50
2018-02-21T07:36:15.666Z,0.40
2018-02-21T07:38:45.000Z,0.30
2018-02-21T07:41:14.289Z,0.20
2018-02-21T07:43:43.681Z,0.20
2018-02-21T07:46:13.030Z,0.10
2018-02-21T07:48:43.682Z,0.00
2018-02-21T07:51:13.048Z,0.00
2018-02-21T07:53:42.368Z,0.10
2018-02-21T07:56:12.498Z,0.00
2018-02-21T07:58:41.805Z,0.00
2018-02-21T08:01:11.194Z,0.10
2018-02-21T08:03:42.092Z,0.20
2018-02-21T08:06:11.387Z,0.20
2018-02-21T08:08:40.917Z,0.10
2018-02-21T08:11:10.245Z,0.00
2018-02-21T08:13:39.567Z,-0.10
2018-02-21T08:16:08.910Z,-0.20
2018-02-21T08:18:38.890Z,-0.10
2018-02-21T08:21:09.034Z,-0.10
2018-02-21T08:23:38.464Z,-0.10
2018-02-21T08:26:09.507Z,0.00
2018-02-21T08:28:40.331Z,0.20
2018-02-21T08:31:09.657Z,0.20
2018-02-21T08:33:39.758Z,0.10
2018-02-21T08:36:09.860Z,0.10
2018-02-21T08:38:39.259Z,0.10
2018-02-21T08:41:09.357Z,0.10
2018-02-21T08:43:38.698Z,0.10
2018-02-21T08:46:08.064Z,0.10
2018-02-21T08:48:37.422Z,0.20
2018-02-21T08:51:06.705Z,0.20
2018-02-21T08:53:36.132Z,0.20
2018-02-21T08:56:05.434Z,0.10
2018-02-21T08:58:34.791Z,0.20
2018-02-21T09:01:04.101Z,0.20
2018-02-21T09:03:34.390Z,0.30
2018-02-21T09:06:03.826Z,0.30
2018-02-21T09:08:33.161Z,0.40
2018-02-21T09:11:02.505Z,0.60
2018-02-21T09:13:32.002Z,0.60
2018-02-21T09:16:01.315Z,0.60
2018-02-21T09:18:30.617Z,0.70
2018-02-21T09:21:00.140Z,0.70
2018-02-21T09:23:29.460Z,0.70
2018-02-21T09:25:59.552Z,0.70
2018-02-21T09:28:28.957Z,0.70
2018-02-21T09:30:58.360Z,0.70
2018-02-21T09:33:27.663Z,0.60
2018-02-21T09:35:57.018Z,0.70
2018-02-21T09:38:26.314Z,0.80
2018-02-21T09:40:55.614Z,0.90
2018-02-21T09:43:24.955Z,1.00
2018-02-21T09:45:54.287Z,0.90
2018-02-21T09:48:24.401Z,0.80
2018-02-21T09:50:53.689Z,0.80
2018-02-21T09:53:23.015Z,0.80
2018-02-21T09:55:52.330Z,0.80
2018-02-21T09:58:21.790Z,0.80
2018-02-21T10:00:51.144Z,0.90
2018-02-21T10:03:20.480Z,1.10
2018-02-21T10:05:49.795Z,1.10
2018-02-21T10:08:19.159Z,1.10
2018-02-21T10:10:48.500Z,1.10
2018-02-21T10:13:17.798Z,1.20
2018-02-21T10:15:47.135Z,1.10
2018-02-21T10:18:17.199Z,1.30
2018-02-21T10:20:46.518Z,1.30
2018-02-21T10:23:15.876Z,1.30
2018-02-21T10:25:45.172Z,1.40
2018-02-21T10:28:14.472Z,1.40
2018-02-21T10:30:43.852Z,1.50
2018-02-21T10:33:13.143Z,1.50
2018-02-21T10:35:42.457Z,1.50
2018-02-21T10:38:12.557Z,1.60
2018-02-21T10:40:41.855Z,1.50
2018-02-21T10:43:11.215Z,1.60
2018-02-21T10:45:40.497Z,1.60
2018-02-21T10:48:09.804Z,1.60
2018-02-21T10:50:39.383Z,1.60
2018-02-21T10:53:09.466Z,1.90
2018-02-21T10:55:38.804Z,1.90
2018-02-21T10:58:08.852Z,2.00
2018-02-21T11:00:43.749Z,2.00
2018-02-21T11:03:13.813Z,1.60
2018-02-21T11:05:43.162Z,1.60
2018-02-21T11:08:12.485Z,1.60
2018-02-21T11:10:42.614Z,1.60
2018-02-21T11:13:11.928Z,1.60
2018-02-21T11:15:41.213Z,1.50
2018-02-21T11:18:10.543Z,1.40
2018-02-21T11:20:39.847Z,1.50
2018-02-21T11:23:09.138Z,1.50
2018-02-21T11:25:38.501Z,1.60
2018-02-21T11:28:07.790Z,1.50
2018-02-21T11:30:37.099Z,1.60
2018-02-21T11:33:07.205Z,1.60
2018-02-21T11:35:37.279Z,1.70
2018-02-21T11:38:06.623Z,1.60
2018-02-21T11:40:36.711Z,1.90
2018-02-21T11:43:06.792Z,2.00
2018-02-21T11:45:36.092Z,2.00
2018-02-21T11:48:05.381Z,2.20
2018-02-21T11:50:35.536Z,2.40
2018-02-21T11:53:04.800Z,2.40
2018-02-21T11:55:34.925Z,2.50
2018-02-21T11:58:04.237Z,2.40
2018-02-21T12:00:33.539Z,2.50
2018-02-21T12:03:02.887Z,2.60
2018-02-21T12:05:32.193Z,2.60
2018-02-21T12:08:04.566Z,2.60
2018-02-21T12:10:33.878Z,2.60
2018-02-21T12:13:03.188Z,2.60
2018-02-21T12:15:33.339Z,2.70
2018-02-21T12:18:02.630Z,2.70
2018-02-21T12:20:31.927Z,2.80
2018-02-21T12:23:01.256Z,2.80
2018-02-21T12:25:30.550Z,2.80
2018-02-21T12:27:59.845Z,2.90
2018-02-21T12:30:29.182Z,2.90
2018-02-21T12:33:07.912Z,2.90
2018-02-21T12:35:37.958Z,3.00
2018-02-21T12:38:08.023Z,3.00
2018-02-21T12:40:42.950Z,3.00
2018-02-21T12:43:12.206Z,3.00
2018-02-21T12:45:43.472Z,3.20
2018-02-21T12:48:12.807Z,3.20
2018-02-21T12:50:42.137Z,3.20
2018-02-21T12:53:11.534Z,3.20
2018-02-21T12:55:40.779Z,3.20
2018-02-21T12:58:10.071Z,3.30
2018-02-21T13:00:39.413Z,3.30
2018-02-21T13:03:08.746Z,3.40
2018-02-21T13:05:38.565Z,3.30
2018-02-21T13:08:09.103Z,3.40
2018-02-21T13:10:38.372Z,3.40
2018-02-21T13:13:07.672Z,3.40
2018-02-21T13:15:36.999Z,3.40
2018-02-21T13:18:06.299Z,3.50
2018-02-21T13:20:36.390Z,3.60
2018-02-21T13:23:05.686Z,3.60
2018-02-21T13:25:34.989Z,3.60
2018-02-21T13:28:04.309Z,3.60
2018-02-21T13:30:33.601Z,3.60
2018-02-21T13:33:02.929Z,3.50
2018-02-21T13:35:32.998Z,3.60
2018-02-21T13:38:02.338Z,3.60
2018-02-21T13:40:32.388Z,3.70
2018-02-21T13:43:01.791Z,3.70
2018-02-21T13:45:31.155Z,3.70
2018-02-21T13:48:00.454Z,3.70
2018-02-21T13:50:29.763Z,3.70
2018-02-21T13:52:59.101Z,3.70
2018-02-21T13:55:28.400Z,3.60
2018-02-21T13:57:57.688Z,3.60
2018-02-21T14:00:27.052Z,3.60
2018-02-21T14:02:56.352Z,3.70
2018-02-21T14:05:25.655Z,3.80
2018-02-21T14:07:55.028Z,3.80
2018-02-21T14:10:24.316Z,3.90
2018-02-21T14:12:53.624Z,3.90
2018-02-21T14:15:22.950Z,3.90
2018-02-21T14:17:52.246Z,4.00
2018-02-21T14:20:21.546Z,4.00
2018-02-21T14:22:50.862Z,4.00
2018-02-21T14:25:20.173Z,4.00
2018-02-21T14:27:50.298Z,4.00
2018-02-21T14:30:20.397Z,3.80
2018-02-21T14:32:49.699Z,3.80
2018-02-21T14:35:19.056Z,3.90
2018-02-21T14:37:49.081Z,3.80
2018-02-21T14:40:18.390Z,3.80
2018-02-21T14:42:47.766Z,3.90
2018-02-21T14:45:17.063Z,3.90
2018-02-21T14:47:46.398Z,3.90
2018-02-21T14:50:15.690Z,3.90
2018-02-21T14:52:44.982Z,4.00
2018-02-21T14:55:14.302Z,4.00
2018-02-21T14:57:44.478Z,4.00
2018-02-21T15:00:13.814Z,3.80
2018-02-21T15:02:43.137Z,3.80
2018-02-21T15:05:12.430Z,3.90
2018-02-21T15:07:41.742Z,3.90
2018-02-21T15:10:11.068Z,3.80
2018-02-21T15:12:41.120Z,3.80
2018-02-21T15:15:10.464Z,3.80
2018-02-21T15:17:39.768Z,3.80
2018-02-21T15:20:09.087Z,3.80
2018-02-21T15:22:39.180Z,3.80
2018-02-21T15:25:08.468Z,3.80
2018-02-21T15:27:37.769Z,3.80
2018-02-21T15:30:07.088Z,3.80
2018-02-21T15:32:37.125Z,3.80
2018-02-21T15:35:07.267Z,3.60
2018-02-21T15:40:12.752Z,3.60
2018-02-21T15:42:42.135Z,3.60
2018-02-21T15:45:11.494Z,3.60
2018-02-21T15:47:40.771Z,3.50
2018-02-21T15:50:10.061Z,3.40
2018-02-21T15:52:39.349Z,3.40
2018-02-21T15:55:08.722Z,3.40
2018-02-21T15:57:38.778Z,3.40
2018-02-21T16:00:08.093Z,3.30
2018-02-21T16:02:37.402Z,3.40
2018-02-21T16:05:06.718Z,3.40
2018-02-21T16:07:36.084Z,3.40
2018-02-21T16:10:06.254Z,3.30
2018-02-21T16:12:36.416Z,3.40
2018-02-21T16:15:05.708Z,3.30
2018-02-21T16:17:35.000Z,3.40
2018-02-21T16:20:04.333Z,3.40
2018-02-21T16:22:33.634Z,3.40
2018-02-21T16:25:02.925Z,3.40
2018-02-21T16:27:32.269Z,3.40
2018-02-21T16:30:02.348Z,3.30
2018-02-21T16:32:31.645Z,3.30
2018-02-21T16:35:00.945Z,3.20
2018-02-21T16:37:30.252Z,3.20
2018-02-21T16:39:59.611Z,3.10
2018-02-21T16:42:29.674Z,3.10
2018-02-21T16:44:58.995Z,3.10
2018-02-21T16:47:28.272Z,3.10
2018-02-21T16:49:57.559Z,3.00
2018-02-21T16:52:26.898Z,3.00
2018-02-21T16:54:56.189Z,3.00
2018-02-21T16:57:25.537Z,2.90
2018-02-21T16:59:55.625Z,2.90
2018-02-21T17:02:24.911Z,2.80
2018-02-21T17:04:54.226Z,2.80
2018-02-21T17:07:23.538Z,2.80
2018-02-21T17:09:53.145Z,2.70
2018-02-21T17:12:23.241Z,2.70
2018-02-21T17:14:52.584Z,2.70
2018-02-21T17:17:21.885Z,2.80
2018-02-21T17:19:51.248Z,2.70
2018-02-21T17:22:20.537Z,2.80
2018-02-21T17:24:49.918Z,2.70
2018-02-21T17:27:19.248Z,2.70
2018-02-21T17:29:48.550Z,2.70
2018-02-21T17:32:17.908Z,2.70
2018-02-21T17:34:47.196Z,2.70
2018-02-21T17:37:16.486Z,2.70
2018-02-21T17:39:46.577Z,2.80
2018-02-21T17:42:15.897Z,2.70
2018-02-21T17:44:45.996Z,2.80
2018-02-21T17:47:15.349Z,2.80
2018-02-21T17:49:44.627Z,2.80
2018-02-21T17:52:14.711Z,2.90
2018-02-21T17:54:44.001Z,2.90
2018-02-21T17:57:13.297Z,2.80
2018-02-21T17:59:42.636Z,2.80
2018-02-21T18:02:12.693Z,2.70
2018-02-21T18:04:42.020Z,2.70
2018-02-21T18:07:11.322Z,2.80
2018-02-21T18:09:40.609Z,2.90
2018-02-21T18:12:09.986Z,2.80
2018-02-21T18:14:39.272Z,2.80
2018-02-21T18:17:08.586Z,2.80
2018-02-21T18:19:37.884Z,2.80
2018-02-21T18:22:07.181Z,2.70
2018-02-21T18:24:36.466Z,2.70
2018-02-21T18:27:06.570Z,2.70
2018-02-21T18:29:35.876Z,2.70
2018-02-21T18:32:05.197Z,2.70
2018-02-21T18:34:34.485Z,2.60
2018-02-21T18:37:04.585Z,2.50
2018-02-21T18:39:33.888Z,2.50
2018-02-21T18:42:03.177Z,2.40
2018-02-21T18:44:32.520Z,2.40
2018-02-21T18:47:01.818Z,2.40
2018-02-21T18:49:31.137Z,2.30
2018-02-21T18:52:00.448Z,2.30
2018-02-21T18:54:29.750Z,2.20
2018-02-21T18:56:59.061Z,2.10
2018-02-21T18:59:28.367Z,2.10
2018-02-21T19:01:57.670Z,2.10
2018-02-21T19:04:26.998Z,2.10
2018-02-21T19:06:57.051Z,2.00
2018-02-21T19:09:26.455Z,2.00
2018-02-21T19:11:55.789Z,2.00
2018-02-21T19:14:25.120Z,2.10
2018-02-21T19:16:54.421Z,2.00
2018-02-21T19:19:23.745Z,2.00
2018-02-21T19:21:53.014Z,1.90
2018-02-21T19:24:22.362Z,1.80
2018-02-21T19:26:51.661Z,1.90
2018-02-21T19:29:20.971Z,1.80
2018-02-21T19:31:50.294Z,1.80
2018-02-21T19:34:19.586Z,1.80
2018-02-21T19:36:48.920Z,1.90
2018-02-21T19:39:18.236Z,1.80
2018-02-21T19:41:48.319Z,1.90
2018-02-21T19:44:17.615Z,1.80
2018-02-21T19:46:46.976Z,1.90
2018-02-21T19:49:16.351Z,1.80
2018-02-21T19:51:45.645Z,1.80
2018-02-21T19:54:14.992Z,1.80
2018-02-21T19:56:44.309Z,1.80
2018-02-21T19:59:13.618Z,1.80
2018-02-21T20:01:43.724Z,1.90
2018-02-21T20:04:13.046Z,1.90
2018-02-21T20:06:42.342Z,1.80
2018-02-21T20:09:11.653Z,1.80
2018-02-21T20:11:40.945Z,1.90
2018-02-21T20:14:10.300Z,1.90
2018-02-21T20:16:40.424Z,1.90
2018-02-21T20:19:09.694Z,1.90
2018-02-21T20:21:39.956Z,2.00
2018-02-21T20:24:09.260Z,1.90
2018-02-21T20:26:39.495Z,1.70
2018-02-21T20:29:08.781Z,1.60
2018-02-21T20:31:38.137Z,1.50
2018-02-21T20:34:07.459Z,1.30
2018-02-21T20:36:37.513Z,1.20
2018-02-21T20:39:06.845Z,1.20
2018-02-21T20:41:36.139Z,1.20
2018-02-21T20:44:06.008Z,1.20
2018-02-21T20:46:35.376Z,1.00
2018-02-21T20:49:05.458Z,0.90
2018-02-21T20:51:34.792Z,0.90
2018-02-21T20:54:04.091Z,0.90
2018-02-21T20:56:33.423Z,0.80
2018-02-21T20:59:03.656Z,0.80
2018-02-21T21:01:32.922Z,0.80
2018-02-21T21:04:02.280Z,0.80
2018-02-21T21:06:31.596Z,0.90
2018-02-21T21:09:00.894Z,0.80
2018-02-21T21:11:30.229Z,0.80
2018-02-21T21:13:59.522Z,0.80
2018-02-21T21:16:28.864Z,0.80
2018-02-21T21:18:58.201Z,0.80
2018-02-21T21:21:27.513Z,0.80
2018-02-21T21:23:56.820Z,0.80
2018-02-21T21:26:26.149Z,0.80
2018-02-21T21:28:55.475Z,0.80
2018-02-21T21:31:24.749Z,0.90
2018-02-21T21:33:54.114Z,0.90
2018-02-21T21:36:23.361Z,0.80
2018-02-21T21:38:52.682Z,0.70
2018-02-21T21:41:21.974Z,0.50
2018-02-21T21:43:51.274Z,0.50
2018-02-21T21:46:20.597Z,0.60
2018-02-21T21:48:50.061Z,0.50
2018-02-21T21:51:20.170Z,0.50
2018-02-21T21:53:50.241Z,0.50
2018-02-21T21:56:19.562Z,0.50
2018-02-21T21:58:48.896Z,0.50
2018-02-21T22:01:18.202Z,0.50
2018-02-21T22:03:48.313Z,0.40
2018-02-21T22:06:18.370Z,0.30
2018-02-21T22:08:47.700Z,0.30
2018-02-21T22:11:17.023Z,0.20
2018-02-21T22:13:47.095Z,0.20
2018-02-21T22:16:16.408Z,0.20
2018-02-21T22:18:45.718Z,0.00
2018-02-21T22:21:15.069Z,0.00
2018-02-21T22:23:44.351Z,0.00
2018-02-21T22:26:14.477Z,-0.10
2018-02-21T22:28:43.794Z,-0.20
2018-02-21T22:31:13.095Z,-0.20
2018-02-21T22:33:42.421Z,-0.20
2018-02-21T22:36:12.410Z,-0.20
2018-02-21T22:38:41.765Z,-0.20
2018-02-21T22:41:11.082Z,-0.30
2018-02-21T22:43:40.419Z,-0.30
2018-02-21T22:46:09.726Z,-0.20
2018-02-21T22:48:39.028Z,-0.30
2018-02-21T22:51:08.357Z,-0.30
2018-02-21T22:53:37.679Z,-0.20
2018-02-21T22:56:07.032Z,-0.30
2018-02-21T22:58:36.375Z,-0.30
2018-02-21T23:01:05.654Z,-0.30
2018-02-21T23:03:35.020Z,-0.30
2018-02-21T23:06:05.055Z,-0.20
2018-02-21T23:08:34.397Z,-0.20
2018-02-21T23:11:03.714Z,-0.20
2018-02-21T23:13:33.850Z,-0.30
2018-02-21T23:16:03.186Z,-0.30
2018-02-21T23:18:32.497Z,-0.30
2018-02-21T23:21:02.567Z,-0.30
2018-02-21T23:23:32.682Z,-0.40
2018-02-21T23:26:03.268Z,-0.40
2018-02-21T23:28:32.622Z,-0.40
2018-02-21T23:31:02.590Z,-0.40
2018-02-21T23:33:31.941Z,-0.40
2018-02-21T23:36:01.250Z,-0.40
2018-02-21T23:38:31.186Z,-0.50
2018-02-21T23:41:00.465Z,-0.50
2018-02-21T23:43:29.825Z,-0.50
2018-02-21T23:45:59.130Z,-0.50
2018-02-21T23:48:28.444Z,-0.60
2018-02-21T23:50:57.794Z,-0.60
2018-02-21T23:53:27.111Z,-0.60
2018-02-21T23:55:56.408Z,-0.50
2018-02-21T23:58:25.770Z,-0.50
